sensor_id;sensor_type;location;lat;lon;timestamp;pressure;altitude;pressure_sealevel;temperature
54026;BMP280;74404;50.662;3.398;2023-12-20T00:00:16;101256.00;;;7.82
54026;BMP280;74404;50.662;3.398;2023-12-20T00:02:42;101253.34;;;7.82
54026;BMP280;74404;50.662;3.398;2023-12-20T00:05:13;101263.13;;;7.82
54026;BMP280;74404;50.662;3.398;2023-12-20T00:07:39;101246.44;;;7.76
54026;BMP280;74404;50.662;3.398;2023-12-20T00:10:04;101249.88;;;7.77
54026;BMP280;74404;50.662;3.398;2023-12-20T00:12:30;101246.44;;;7.76
54026;BMP280;74404;50.662;3.398;2023-12-20T00:14:55;101245.13;;;7.74
54026;BMP280;74404;50.662;3.398;2023-12-20T00:17:21;101244.59;;;7.72
54026;BMP280;74404;50.662;3.398;2023-12-20T00:19:46;101251.16;;;7.69
54026;BMP280;74404;50.662;3.398;2023-12-20T00:22:12;101268.13;;;7.73
54026;BMP280;74404;50.662;3.398;2023-12-20T00:24:37;101268.38;;;7.72
54026;BMP280;74404;50.662;3.398;2023-12-20T00:27:03;101263.88;;;7.72
54026;BMP280;74404;50.662;3.398;2023-12-20T00:29:28;101259.88;;;7.70
54026;BMP280;74404;50.662;3.398;2023-12-20T00:31:54;101259.06;;;7.69
54026;BMP280;74404;50.662;3.398;2023-12-20T00:34:19;101260.16;;;7.68
54026;BMP280;74404;50.662;3.398;2023-12-20T00:36:44;101257.75;;;7.67
54026;BMP280;74404;50.662;3.398;2023-12-20T00:39:10;101257.75;;;7.67
54026;BMP280;74404;50.662;3.398;2023-12-20T00:41:35;101248.22;;;7.66
54026;BMP280;74404;50.662;3.398;2023-12-20T00:44:01;101247.69;;;7.64
54026;BMP280;74404;50.662;3.398;2023-12-20T00:46:26;101229.44;;;7.62
54026;BMP280;74404;50.662;3.398;2023-12-20T00:48:52;101233.91;;;7.61
54026;BMP280;74404;50.662;3.398;2023-12-20T00:51:17;101237.88;;;7.59
54026;BMP280;74404;50.662;3.398;2023-12-20T00:53:43;101241.25;;;7.54
54026;BMP280;74404;50.662;3.398;2023-12-20T00:56:08;101237.56;;;7.55
54026;BMP280;74404;50.662;3.398;2023-12-20T00:58:34;101242.84;;;7.55
54026;BMP280;74404;50.662;3.398;2023-12-20T01:00:59;101244.69;;;7.55
54026;BMP280;74404;50.662;3.398;2023-12-20T01:03:25;101244.97;;;7.53
54026;BMP280;74404;50.662;3.398;2023-12-20T01:05:50;101251.31;;;7.52
54026;BMP280;74404;50.662;3.398;2023-12-20T01:08:16;101264.25;;;7.54
54026;BMP280;74404;50.662;3.398;2023-12-20T01:10:41;101266.09;;;7.53
54026;BMP280;74404;50.662;3.398;2023-12-20T01:13:06;101270.03;;;7.51
54026;BMP280;74404;50.662;3.398;2023-12-20T01:15:34;101268.44;;;7.50
54026;BMP280;74404;50.662;3.398;2023-12-20T01:17:59;101265.78;;;7.50
54026;BMP280;74404;50.662;3.398;2023-12-20T01:20:24;101266.28;;;7.47
54026;BMP280;74404;50.662;3.398;2023-12-20T01:22:50;101283.75;;;7.48
54026;BMP280;74404;50.662;3.398;2023-12-20T01:25:16;101278.94;;;7.45
54026;BMP280;74404;50.662;3.398;2023-12-20T01:27:41;101286.88;;;7.45
54026;BMP280;74404;50.662;3.398;2023-12-20T01:30:07;101286.31;;;7.37
54026;BMP280;74404;50.662;3.398;2023-12-20T01:32:33;101290.00;;;7.41
54026;BMP280;74404;50.662;3.398;2023-12-20T01:34:58;101285.00;;;7.40
54026;BMP280;74404;50.662;3.398;2023-12-20T01:37:23;101287.63;;;7.40
54026;BMP280;74404;50.662;3.398;2023-12-20T01:39:50;101282.59;;;7.38
54026;BMP280;74404;50.662;3.398;2023-12-20T01:42:16;101290.78;;;7.37
54026;BMP280;74404;50.662;3.398;2023-12-20T01:44:41;101281.00;;;7.37
54026;BMP280;74404;50.662;3.398;2023-12-20T01:47:07;101279.41;;;7.36
54026;BMP280;74404;50.662;3.398;2023-12-20T01:49:33;101274.84;;;7.32
54026;BMP280;74404;50.662;3.398;2023-12-20T01:51:58;101284.94;;;7.35
54026;BMP280;74404;50.662;3.398;2023-12-20T01:54:24;101276.16;;;7.29
54026;BMP280;74404;50.662;3.398;2023-12-20T01:56:50;101278.88;;;7.34
54026;BMP280;74404;50.662;3.398;2023-12-20T01:59:17;101285.19;;;7.33
54026;BMP280;74404;50.662;3.398;2023-12-20T02:01:43;101279.88;;;7.28
54026;BMP280;74404;50.662;3.398;2023-12-20T02:04:08;101287.28;;;7.31
54026;BMP280;74404;50.662;3.398;2023-12-20T02:06:34;101287.53;;;7.30
54026;BMP280;74404;50.662;3.398;2023-12-20T02:08:59;101285.66;;;7.30
54026;BMP280;74404;50.662;3.398;2023-12-20T02:11:25;101291.50;;;7.27
54026;BMP280;74404;50.662;3.398;2023-12-20T02:13:51;101285.63;;;7.25
54026;BMP280;74404;50.662;3.398;2023-12-20T02:16:17;101281.19;;;7.26
54026;BMP280;74404;50.662;3.398;2023-12-20T02:18:43;101283.81;;;7.26
54026;BMP280;74404;50.662;3.398;2023-12-20T02:21:09;101281.66;;;7.22
54026;BMP280;74404;50.662;3.398;2023-12-20T02:23:35;101276.38;;;7.22
54026;BMP280;74404;50.662;3.398;2023-12-20T02:26:01;101279.25;;;7.21
54026;BMP280;74404;50.662;3.398;2023-12-20T02:28:27;101278.47;;;7.20
54026;BMP280;74404;50.662;3.398;2023-12-20T02:30:53;101287.44;;;7.19
54026;BMP280;74404;50.662;3.398;2023-12-20T02:33:18;101290.84;;;7.20
54026;BMP280;74404;50.662;3.398;2023-12-20T02:35:44;101280.03;;;7.16
54026;BMP280;74404;50.662;3.398;2023-12-20T02:38:09;101290.31;;;7.18
54026;BMP280;74404;50.662;3.398;2023-12-20T02:40:34;101286.34;;;7.15
54026;BMP280;74404;50.662;3.398;2023-12-20T02:43:00;101283.97;;;7.14
54026;BMP280;74404;50.662;3.398;2023-12-20T02:45:26;101279.47;;;7.14
54026;BMP280;74404;50.662;3.398;2023-12-20T02:47:52;101273.66;;;7.12
54026;BMP280;74404;50.662;3.398;2023-12-20T02:50:17;101279.97;;;7.11
54026;BMP280;74404;50.662;3.398;2023-12-20T02:52:44;101276.53;;;7.11
54026;BMP280;74404;50.662;3.398;2023-12-20T02:55:10;101273.06;;;7.10
54026;BMP280;74404;50.662;3.398;2023-12-20T02:57:36;101270.69;;;7.09
54026;BMP280;74404;50.662;3.398;2023-12-20T03:00:02;101271.75;;;7.08
54026;BMP280;74404;50.662;3.398;2023-12-20T03:02:27;101265.09;;;7.05
54026;BMP280;74404;50.662;3.398;2023-12-20T03:04:53;101271.19;;;7.06
54026;BMP280;74404;50.662;3.398;2023-12-20T03:07:19;101273.00;;;7.05
54026;BMP280;74404;50.662;3.398;2023-12-20T03:09:45;101268.81;;;7.04
54026;BMP280;74404;50.662;3.398;2023-12-20T03:12:10;101263.53;;;7.04
54026;BMP280;74404;50.662;3.398;2023-12-20T03:14:36;101261.94;;;7.03
54026;BMP280;74404;50.662;3.398;2023-12-20T03:17:01;101258.75;;;7.01
54026;BMP280;74404;50.662;3.398;2023-12-20T03:19:26;101261.63;;;6.99
54026;BMP280;74404;50.662;3.398;2023-12-20T03:21:52;101266.91;;;6.99
54026;BMP280;74404;50.662;3.398;2023-12-20T03:24:18;101264.28;;;6.99
54026;BMP280;74404;50.662;3.398;2023-12-20T03:26:44;101260.03;;;6.98
54026;BMP280;74404;50.662;3.398;2023-12-20T03:29:09;101265.84;;;7.00
54026;BMP280;74404;50.662;3.398;2023-12-20T03:31:35;101259.00;;;6.99
54026;BMP280;74404;50.662;3.398;2023-12-20T03:34:00;101248.69;;;6.98
54026;BMP280;74404;50.662;3.398;2023-12-20T03:36:25;101250.78;;;6.96
54026;BMP280;74404;50.662;3.398;2023-12-20T03:38:51;101257.88;;;6.95
54026;BMP280;74404;50.662;3.398;2023-12-20T03:41:16;101264.22;;;6.94
54026;BMP280;74404;50.662;3.398;2023-12-20T03:43:42;101259.16;;;6.93
54026;BMP280;74404;50.662;3.398;2023-12-20T03:46:10;101258.94;;;6.94
54026;BMP280;74404;50.662;3.398;2023-12-20T03:48:36;101265.00;;;6.95
54026;BMP280;74404;50.662;3.398;2023-12-20T03:51:01;101263.38;;;6.94
54026;BMP280;74404;50.662;3.398;2023-12-20T03:53:27;101267.88;;;6.93
54026;BMP280;74404;50.662;3.398;2023-12-20T03:55:52;101270.00;;;6.91
54026;BMP280;74404;50.662;3.398;2023-12-20T03:58:18;101267.34;;;6.91
54026;BMP280;74404;50.662;3.398;2023-12-20T04:00:43;101264.97;;;6.90
54026;BMP280;74404;50.662;3.398;2023-12-20T04:03:09;101263.09;;;6.90
54026;BMP280;74404;50.662;3.398;2023-12-20T04:05:35;101268.38;;;6.90
54026;BMP280;74404;50.662;3.398;2023-12-20T04:08:01;101264.19;;;6.89
54026;BMP280;74404;50.662;3.398;2023-12-20T04:10:27;101273.91;;;6.89
54026;BMP280;74404;50.662;3.398;2023-12-20T04:12:53;101267.06;;;6.88
54026;BMP280;74404;50.662;3.398;2023-12-20T04:15:18;101263.03;;;6.85
54026;BMP280;74404;50.662;3.398;2023-12-20T04:17:44;101259.38;;;6.86
54026;BMP280;74404;50.662;3.398;2023-12-20T04:20:09;101259.38;;;6.86
54026;BMP280;74404;50.662;3.398;2023-12-20T04:22:35;101270.16;;;6.84
54026;BMP280;74404;50.662;3.398;2023-12-20T04:25:00;101264.06;;;6.84
54026;BMP280;74404;50.662;3.398;2023-12-20T04:27:26;101273.28;;;6.81
54026;BMP280;74404;50.662;3.398;2023-12-20T04:29:51;101279.13;;;6.83
54026;BMP280;74404;50.662;3.398;2023-12-20T04:32:16;101273.53;;;6.80
54026;BMP280;74404;50.662;3.398;2023-12-20T04:34:42;101270.38;;;6.78
54026;BMP280;74404;50.662;3.398;2023-12-20T04:37:07;101278.03;;;6.79
54026;BMP280;74404;50.662;3.398;2023-12-20T04:39:32;101279.84;;;6.79
54026;BMP280;74404;50.662;3.398;2023-12-20T04:41:58;101273.78;;;6.78
54026;BMP280;74404;50.662;3.398;2023-12-20T04:44:24;101271.13;;;6.78
54026;BMP280;74404;50.662;3.398;2023-12-20T04:46:49;101272.19;;;6.77
54026;BMP280;74404;50.662;3.398;2023-12-20T04:49:14;101270.63;;;6.76
54026;BMP280;74404;50.662;3.398;2023-12-20T04:51:40;101275.06;;;6.76
54026;BMP280;74404;50.662;3.398;2023-12-20T04:54:05;101283.00;;;6.76
54026;BMP280;74404;50.662;3.398;2023-12-20T04:56:31;101273.50;;;6.75
54026;BMP280;74404;50.662;3.398;2023-12-20T04:58:57;101286.69;;;6.75
54026;BMP280;74404;50.662;3.398;2023-12-20T05:01:22;101273.75;;;6.73
54026;BMP280;74404;50.662;3.398;2023-12-20T05:03:47;101269.72;;;6.71
54026;BMP280;74404;50.662;3.398;2023-12-20T05:06:13;101282.69;;;6.72
54026;BMP280;74404;50.662;3.398;2023-12-20T05:08:38;101281.59;;;6.68
54026;BMP280;74404;50.662;3.398;2023-12-20T05:11:04;101284.75;;;6.70
54026;BMP280;74404;50.662;3.398;2023-12-20T05:13:29;101287.41;;;6.70
54026;BMP280;74404;50.662;3.398;2023-12-20T05:15:55;101280.53;;;6.69
54026;BMP280;74404;50.662;3.398;2023-12-20T05:18:21;101280.53;;;6.69
54026;BMP280;74404;50.662;3.398;2023-12-20T05:20:47;101279.72;;;6.69
54026;BMP280;74404;50.662;3.398;2023-12-20T05:23:12;101278.13;;;6.68
54026;BMP280;74404;50.662;3.398;2023-12-20T05:25:38;101270.75;;;6.64
54026;BMP280;74404;50.662;3.398;2023-12-20T05:28:04;101272.00;;;6.62
54026;BMP280;74404;50.662;3.398;2023-12-20T05:30:30;101279.44;;;6.65
54026;BMP280;74404;50.662;3.398;2023-12-20T05:32:55;101271.00;;;6.63
54026;BMP280;74404;50.662;3.398;2023-12-20T05:35:21;101269.13;;;6.63
54026;BMP280;74404;50.662;3.398;2023-12-20T05:37:48;101271.22;;;6.61
54026;BMP280;74404;50.662;3.398;2023-12-20T05:40:14;101280.72;;;6.62
54026;BMP280;74404;50.662;3.398;2023-12-20T05:42:39;101278.09;;;6.62
54026;BMP280;74404;50.662;3.398;2023-12-20T05:45:05;101281.78;;;6.61
54026;BMP280;74404;50.662;3.398;2023-12-20T05:47:31;101281.78;;;6.61
54026;BMP280;74404;50.662;3.398;2023-12-20T05:49:57;101285.44;;;6.60
54026;BMP280;74404;50.662;3.398;2023-12-20T05:52:22;101285.69;;;6.59
54026;BMP280;74404;50.662;3.398;2023-12-20T05:54:47;101268.50;;;6.56
54026;BMP280;74404;50.662;3.398;2023-12-20T05:57:13;101276.97;;;6.58
54026;BMP280;74404;50.662;3.398;2023-12-20T05:59:39;101284.09;;;6.58
54026;BMP280;74404;50.662;3.398;2023-12-20T06:02:04;101277.22;;;6.57
54026;BMP280;74404;50.662;3.398;2023-12-20T06:04:30;101288.56;;;6.57
54026;BMP280;74404;50.662;3.398;2023-12-20T06:06:56;101284.09;;;6.58
54026;BMP280;74404;50.662;3.398;2023-12-20T06:09:21;101286.75;;;6.58
54026;BMP280;74404;50.662;3.398;2023-12-20T06:11:47;101289.38;;;6.58
54026;BMP280;74404;50.662;3.398;2023-12-20T06:14:12;101292.00;;;6.58
54026;BMP280;74404;50.662;3.398;2023-12-20T06:16:37;101294.06;;;6.56
54026;BMP280;74404;50.662;3.398;2023-12-20T06:19:03;101295.69;;;6.57
54026;BMP280;74404;50.662;3.398;2023-12-20T06:21:28;101296.72;;;6.56
54026;BMP280;74404;50.662;3.398;2023-12-20T06:23:54;101294.31;;;6.54
54026;BMP280;74404;50.662;3.398;2023-12-20T06:26:20;101291.44;;;6.56
54026;BMP280;74404;50.662;3.398;2023-12-20T06:28:45;101293.28;;;6.55
54026;BMP280;74404;50.662;3.398;2023-12-20T06:31:11;101286.41;;;6.54
54026;BMP280;74404;50.662;3.398;2023-12-20T06:33:36;101290.09;;;6.53
54026;BMP280;74404;50.662;3.398;2023-12-20T06:36:02;101285.31;;;6.50
54026;BMP280;74404;50.662;3.398;2023-12-20T06:38:27;101279.81;;;6.52
54026;BMP280;74404;50.662;3.398;2023-12-20T06:40:53;101288.50;;;6.52
54026;BMP280;74404;50.662;3.398;2023-12-20T06:43:19;101296.09;;;6.49
54026;BMP280;74404;50.662;3.398;2023-12-20T06:45:44;101290.84;;;6.49
54026;BMP280;74404;50.662;3.398;2023-12-20T06:48:10;101293.47;;;6.49
54026;BMP280;74404;50.662;3.398;2023-12-20T06:50:37;101291.88;;;6.48
54026;BMP280;74404;50.662;3.398;2023-12-20T06:53:05;101297.13;;;6.48
54026;BMP280;74404;50.662;3.398;2023-12-20T06:55:33;101304.81;;;6.49
54026;BMP280;74404;50.662;3.398;2023-12-20T06:58:00;101296.09;;;6.49
54026;BMP280;74404;50.662;3.398;2023-12-20T07:00:25;101287.41;;;6.48
54026;BMP280;74404;50.662;3.398;2023-12-20T07:02:51;101286.59;;;6.48
54026;BMP280;74404;50.662;3.398;2023-12-20T07:05:17;101275.50;;;6.45
54026;BMP280;74404;50.662;3.398;2023-12-20T07:07:45;101274.69;;;6.45
54026;BMP280;74404;50.662;3.398;2023-12-20T07:10:11;101279.16;;;6.44
54026;BMP280;74404;50.662;3.398;2023-12-20T07:12:37;101277.34;;;6.45
54026;BMP280;74404;50.662;3.398;2023-12-20T07:15:02;101274.94;;;6.43
54026;BMP280;74404;50.662;3.398;2023-12-20T07:17:28;101276.78;;;6.43
54026;BMP280;74404;50.662;3.398;2023-12-20T07:19:53;101271.50;;;6.43
54026;BMP280;74404;50.662;3.398;2023-12-20T07:22:19;101266.47;;;6.41
54026;BMP280;74404;50.662;3.398;2023-12-20T07:24:44;101269.13;;;6.41
54026;BMP280;74404;50.662;3.398;2023-12-20T07:27:11;101265.66;;;6.41
54026;BMP280;74404;50.662;3.398;2023-12-20T07:29:36;101277.03;;;6.41
54026;BMP280;74404;50.662;3.398;2023-12-20T07:32:01;101265.66;;;6.41
54026;BMP280;74404;50.662;3.398;2023-12-20T07:34:27;101270.38;;;6.39
54026;BMP280;74404;50.662;3.398;2023-12-20T07:36:52;101265.09;;;6.39
54026;BMP280;74404;50.662;3.398;2023-12-20T07:39:18;101262.22;;;6.40
54026;BMP280;74404;50.662;3.398;2023-12-20T07:41:44;101259.59;;;6.40
54026;BMP280;74404;50.662;3.398;2023-12-20T07:44:09;101271.44;;;6.38
54026;BMP280;74404;50.662;3.398;2023-12-20T07:46:35;101273.28;;;6.37
54026;BMP280;74404;50.662;3.398;2023-12-20T07:49:00;101279.34;;;6.38
54026;BMP280;74404;50.662;3.398;2023-12-20T07:51:26;101285.41;;;6.38
54026;BMP280;74404;50.662;3.398;2023-12-20T07:53:51;101286.47;;;6.37
54026;BMP280;74404;50.662;3.398;2023-12-20T07:56:18;101289.09;;;6.37
54026;BMP280;74404;50.662;3.398;2023-12-20T07:58:44;101283.84;;;6.37
54026;BMP280;74404;50.662;3.398;2023-12-20T08:01:11;101286.47;;;6.37
54026;BMP280;74404;50.662;3.398;2023-12-20T08:03:37;101290.13;;;6.36
54026;BMP280;74404;50.662;3.398;2023-12-20T08:06:03;101291.19;;;6.35
54026;BMP280;74404;50.662;3.398;2023-12-20T08:08:29;101298.31;;;6.35
54026;BMP280;74404;50.662;3.398;2023-12-20T08:10:54;101294.63;;;6.36
54026;BMP280;74404;50.662;3.398;2023-12-20T08:13:20;101298.53;;;6.33
54026;BMP280;74404;50.662;3.398;2023-12-20T08:15:50;101307.25;;;6.34
54026;BMP280;74404;50.662;3.398;2023-12-20T08:18:15;101297.50;;;6.34
54026;BMP280;74404;50.662;3.398;2023-12-20T08:20:41;101295.91;;;6.33
54026;BMP280;74404;50.662;3.398;2023-12-20T08:23:06;101297.97;;;6.31
54026;BMP280;74404;50.662;3.398;2023-12-20T08:25:31;101301.19;;;6.33
54026;BMP280;74404;50.662;3.398;2023-12-20T08:27:57;101296.69;;;6.34
54026;BMP280;74404;50.662;3.398;2023-12-20T08:30:22;101301.41;;;6.32
54026;BMP280;74404;50.662;3.398;2023-12-20T08:32:48;101297.16;;;6.31
54026;BMP280;74404;50.662;3.398;2023-12-20T08:35:14;101300.34;;;6.33
54026;BMP280;74404;50.662;3.398;2023-12-20T08:37:39;101299.00;;;6.30
54026;BMP280;74404;50.662;3.398;2023-12-20T08:40:05;101299.25;;;6.29
54026;BMP280;74404;50.662;3.398;2023-12-20T08:42:31;101299.00;;;6.30
54026;BMP280;74404;50.662;3.398;2023-12-20T08:44:57;101292.94;;;6.30
54026;BMP280;74404;50.662;3.398;2023-12-20T08:47:26;101290.06;;;6.31
54026;BMP280;74404;50.662;3.398;2023-12-20T08:49:52;101290.28;;;6.30
54026;BMP280;74404;50.662;3.398;2023-12-20T08:52:22;101290.28;;;6.30
54026;BMP280;74404;50.662;3.398;2023-12-20T08:54:49;101292.69;;;6.31
54026;BMP280;74404;50.662;3.398;2023-12-20T08:57:19;101288.47;;;6.30
54026;BMP280;74404;50.662;3.398;2023-12-20T08:59:44;101277.69;;;6.32
54026;BMP280;74404;50.662;3.398;2023-12-20T09:02:10;101291.66;;;6.32
54026;BMP280;74404;50.662;3.398;2023-12-20T09:04:35;101278.47;;;6.32
54026;BMP280;74404;50.662;3.398;2023-12-20T09:07:01;101272.19;;;6.33
54026;BMP280;74404;50.662;3.398;2023-12-20T09:09:26;101271.13;;;6.34
54026;BMP280;74404;50.662;3.398;2023-12-20T09:11:52;101267.69;;;6.34
54026;BMP280;74404;50.662;3.398;2023-12-20T09:14:17;101280.09;;;6.33
54026;BMP280;74404;50.662;3.398;2023-12-20T09:16:43;101285.13;;;6.35
54026;BMP280;74404;50.662;3.398;2023-12-20T09:19:08;101283.28;;;6.35
54026;BMP280;74404;50.662;3.398;2023-12-20T09:21:34;101286.47;;;6.37
54026;BMP280;74404;50.662;3.398;2023-12-20T09:24:00;101270.66;;;6.37
54026;BMP280;74404;50.662;3.398;2023-12-20T09:26:25;101276.44;;;6.39
54026;BMP280;74404;50.662;3.398;2023-12-20T09:28:50;101284.63;;;6.38
54026;BMP280;74404;50.662;3.398;2023-12-20T09:31:16;101291.22;;;6.40
54026;BMP280;74404;50.662;3.398;2023-12-20T09:33:41;101282.53;;;6.40
54026;BMP280;74404;50.662;3.398;2023-12-20T09:36:07;101274.63;;;6.40
54026;BMP280;74404;50.662;3.398;2023-12-20T09:38:32;101275.97;;;6.42
54026;BMP280;74404;50.662;3.398;2023-12-20T09:40:58;101283.09;;;6.42
54026;BMP280;74404;50.662;3.398;2023-12-20T09:43:24;101263.59;;;6.43
54026;BMP280;74404;50.662;3.398;2023-12-20T09:45:53;101279.97;;;6.45
54026;BMP280;74404;50.662;3.398;2023-12-20T09:48:19;101282.91;;;6.49
54026;BMP280;74404;50.662;3.398;2023-12-20T09:50:45;101287.97;;;6.50
54026;BMP280;74404;50.662;3.398;2023-12-20T09:53:14;101285.09;;;6.52
54026;BMP280;74404;50.662;3.398;2023-12-20T09:55:41;101292.72;;;6.53
54026;BMP280;74404;50.662;3.398;2023-12-20T09:58:07;101288.78;;;6.56
54026;BMP280;74404;50.662;3.398;2023-12-20T10:00:34;101289.63;;;6.56
54026;BMP280;74404;50.662;3.398;2023-12-20T10:03:00;101293.03;;;6.57
54026;BMP280;74404;50.662;3.398;2023-12-20T10:05:28;101293.59;;;6.59
54026;BMP280;74404;50.662;3.398;2023-12-20T10:07:54;101301.28;;;6.60
54026;BMP280;74404;50.662;3.398;2023-12-20T10:10:19;101296.78;;;6.61
54026;BMP280;74404;50.662;3.398;2023-12-20T10:15:35;101290.75;;;6.65
54026;BMP280;74404;50.662;3.398;2023-12-20T10:18:01;101296.31;;;6.64
54026;BMP280;74404;50.662;3.398;2023-12-20T10:20:28;101288.66;;;6.68
54026;BMP280;74404;50.662;3.398;2023-12-20T10:23:00;101287.66;;;6.69
54026;BMP280;74404;50.662;3.398;2023-12-20T10:25:27;101270.78;;;6.70
54026;BMP280;74404;50.662;3.398;2023-12-20T10:28:15;101269.72;;;6.71
54026;BMP280;74404;50.662;3.398;2023-12-20T10:30:45;101260.22;;;6.70
54026;BMP280;74404;50.662;3.398;2023-12-20T10:33:10;101258.94;;;6.72
54026;BMP280;74404;50.662;3.398;2023-12-20T10:35:37;101259.50;;;6.74
54026;BMP280;74404;50.662;3.398;2023-12-20T10:38:05;101248.69;;;6.76
54026;BMP280;74404;50.662;3.398;2023-12-20T10:40:31;101248.44;;;6.77
54026;BMP280;74404;50.662;3.398;2023-12-20T10:43:00;101256.91;;;6.79
54026;BMP280;74404;50.662;3.398;2023-12-20T10:45:26;101247.94;;;6.80
54026;BMP280;74404;50.662;3.398;2023-12-20T10:47:52;101231.06;;;6.81
54026;BMP280;74404;50.662;3.398;2023-12-20T10:50:19;101250.88;;;6.84
54026;BMP280;74404;50.662;3.398;2023-12-20T10:52:45;101236.66;;;6.85
54026;BMP280;74404;50.662;3.398;2023-12-20T10:55:12;101231.94;;;6.87
54026;BMP280;74404;50.662;3.398;2023-12-20T10:57:38;101224.81;;;6.88
54026;BMP280;74404;50.662;3.398;2023-12-20T11:00:06;101231.44;;;6.90
54026;BMP280;74404;50.662;3.398;2023-12-20T11:02:39;101233.56;;;6.93
54026;BMP280;74404;50.662;3.398;2023-12-20T11:05:13;101225.41;;;6.95
54026;BMP280;74404;50.662;3.398;2023-12-20T11:07:54;101208.78;;;6.94
54026;BMP280;74404;50.662;3.398;2023-12-20T11:10:46;101215.16;;;6.98
54026;BMP280;74404;50.662;3.398;2023-12-20T11:13:26;101214.13;;;6.99
54026;BMP280;74404;50.662;3.398;2023-12-20T11:15:54;101227.63;;;7.03
54026;BMP280;74404;50.662;3.398;2023-12-20T11:18:19;101216.03;;;7.04
54026;BMP280;74404;50.662;3.398;2023-12-20T11:20:45;101222.63;;;7.07
54026;BMP280;74404;50.662;3.398;2023-12-20T11:23:11;101228.44;;;7.09
54026;BMP280;74404;50.662;3.398;2023-12-20T11:28:13;101213.97;;;7.11
54026;BMP280;74404;50.662;3.398;2023-12-20T11:30:48;101227.72;;;7.13
54026;BMP280;74404;50.662;3.398;2023-12-20T11:33:15;101203.69;;;7.15
54026;BMP280;74404;50.662;3.398;2023-12-20T11:35:41;101208.75;;;7.16
54026;BMP280;74404;50.662;3.398;2023-12-20T11:38:10;101210.59;;;7.16
54026;BMP280;74404;50.662;3.398;2023-12-20T11:40:36;101203.72;;;7.20
54026;BMP280;74404;50.662;3.398;2023-12-20T11:43:03;101200.06;;;7.21
54026;BMP280;74404;50.662;3.398;2023-12-20T11:45:28;101205.34;;;7.21
54026;BMP280;74404;50.662;3.398;2023-12-20T11:47:54;101212.75;;;7.24
54026;BMP280;74404;50.662;3.398;2023-12-20T11:50:22;101193.47;;;7.23
54026;BMP280;74404;50.662;3.398;2023-12-20T11:52:48;101169.16;;;7.21
54026;BMP280;74404;50.662;3.398;2023-12-20T11:55:14;101176.34;;;7.26
54026;BMP280;74404;50.662;3.398;2023-12-20T11:57:40;101170.53;;;7.29
54026;BMP280;74404;50.662;3.398;2023-12-20T12:00:06;101164.19;;;7.25
54026;BMP280;74404;50.662;3.398;2023-12-20T12:02:32;101163.41;;;7.30
54026;BMP280;74404;50.662;3.398;2023-12-20T12:04:59;101167.41;;;7.32
54026;BMP280;74404;50.662;3.398;2023-12-20T12:07:24;101162.13;;;7.32
54026;BMP280;74404;50.662;3.398;2023-12-20T12:09:50;101159.78;;;7.36
54026;BMP280;74404;50.662;3.398;2023-12-20T12:12:16;101157.94;;;7.36
54026;BMP280;74404;50.662;3.398;2023-12-20T12:14:44;101157.38;;;7.34
54026;BMP280;74404;50.662;3.398;2023-12-20T12:17:13;101153.19;;;7.38
54026;BMP280;74404;50.662;3.398;2023-12-20T12:19:42;101149.50;;;7.39
54026;BMP280;74404;50.662;3.398;2023-12-20T12:22:12;101148.19;;;7.42
54026;BMP280;74404;50.662;3.398;2023-12-20T12:24:46;101146.34;;;7.42
54026;BMP280;74404;50.662;3.398;2023-12-20T12:27:13;101143.19;;;7.46
54026;BMP280;74404;50.662;3.398;2023-12-20T12:29:39;101144.00;;;7.46
54026;BMP280;74404;50.662;3.398;2023-12-20T12:32:08;101140.31;;;7.47
54026;BMP280;74404;50.662;3.398;2023-12-20T12:34:35;101146.13;;;7.49
54026;BMP280;74404;50.662;3.398;2023-12-20T12:37:01;101138.22;;;7.49
54026;BMP280;74404;50.662;3.398;2023-12-20T12:39:26;101127.41;;;7.51
54026;BMP280;74404;50.662;3.398;2023-12-20T12:41:53;101123.44;;;7.53
54026;BMP280;74404;50.662;3.398;2023-12-20T12:44:19;101120.00;;;7.53
54026;BMP280;74404;50.662;3.398;2023-12-20T12:46:48;101118.69;;;7.55
54026;BMP280;74404;50.662;3.398;2023-12-20T12:49:16;101114.19;;;7.56
54026;BMP280;74404;50.662;3.398;2023-12-20T12:51:42;101105.78;;;7.59
54026;BMP280;74404;50.662;3.398;2023-12-20T12:54:08;101092.28;;;7.55
54026;BMP280;74404;50.662;3.398;2023-12-20T12:56:35;101089.94;;;7.59
54026;BMP280;74404;50.662;3.398;2023-12-20T12:59:01;101098.13;;;7.62
54026;BMP280;74404;50.662;3.398;2023-12-20T13:01:26;101070.94;;;7.62
54026;BMP280;74404;50.662;3.398;2023-12-20T13:03:52;101081.50;;;7.67
54026;BMP280;74404;50.662;3.398;2023-12-20T13:06:17;101070.94;;;7.67
54026;BMP280;74404;50.662;3.398;2023-12-20T13:08:42;101080.47;;;7.68
54026;BMP280;74404;50.662;3.398;2023-12-20T13:11:09;101080.19;;;7.70
54026;BMP280;74404;50.662;3.398;2023-12-20T13:13:35;101075.72;;;7.70
54026;BMP280;74404;50.662;3.398;2023-12-20T13:16:00;101068.31;;;7.72
54026;BMP280;74404;50.662;3.398;2023-12-20T13:18:26;101077.03;;;7.73
54026;BMP280;74404;50.662;3.398;2023-12-20T13:20:51;101058.28;;;7.74
54026;BMP280;74404;50.662;3.398;2023-12-20T13:23:17;101053.81;;;7.75
54026;BMP280;74404;50.662;3.398;2023-12-20T13:25:44;101043.75;;;7.77
54026;BMP280;74404;50.662;3.398;2023-12-20T13:28:11;101054.06;;;7.78
54026;BMP280;74404;50.662;3.398;2023-12-20T13:30:36;101056.47;;;7.80
54026;BMP280;74404;50.662;3.398;2023-12-20T13:33:02;101048.53;;;7.80
54026;BMP280;74404;50.662;3.398;2023-12-20T13:35:27;101035.84;;;7.82
54026;BMP280;74404;50.662;3.398;2023-12-20T13:37:53;101034.81;;;7.83
54026;BMP280;74404;50.662;3.398;2023-12-20T13:40:18;101030.84;;;7.86
54026;BMP280;74404;50.662;3.398;2023-12-20T13:42:44;101034.56;;;7.85
54026;BMP280;74404;50.662;3.398;2023-12-20T13:45:10;101027.41;;;7.85
54026;BMP280;74404;50.662;3.398;2023-12-20T13:47:36;101032.44;;;7.87
54026;BMP280;74404;50.662;3.398;2023-12-20T13:50:02;101021.59;;;7.88
54026;BMP280;74404;50.662;3.398;2023-12-20T13:52:28;101018.13;;;7.88
54026;BMP280;74404;50.662;3.398;2023-12-20T13:54:53;101016.84;;;7.90
54026;BMP280;74404;50.662;3.398;2023-12-20T13:57:19;101023.72;;;7.91
54026;BMP280;74404;50.662;3.398;2023-12-20T13:59:44;101023.44;;;7.93
54026;BMP280;74404;50.662;3.398;2023-12-20T14:02:10;101019.22;;;7.92
54026;BMP280;74404;50.662;3.398;2023-12-20T14:04:35;101006.53;;;7.94
54026;BMP280;74404;50.662;3.398;2023-12-20T14:07:01;100985.41;;;7.94